createdAt,value
2018-01-29T00:02:11.089Z,29.83
2018-01-29T00:04:46.216Z,27.23
2018-01-29T00:07:21.311Z,29.40
2018-01-29T00:09:56.764Z,27.70
2018-01-29T00:12:31.935Z,30.53
2018-01-29T00:15:07.179Z,22.73
2018-01-29T00:17:42.575Z,19.95
2018-01-29T00:20:17.340Z,27.90
2018-01-29T00:22:52.368Z,32.10
2018-01-29T00:25:27.824Z,28.70
2018-01-29T00:28:02.877Z,29.90
2018-01-29T00:30:38.125Z,35.90
2018-01-29T00:33:12.780Z,28.30
2018-01-29T00:35:48.132Z,25.43
2018-01-29T00:38:23.193Z,29.53
2018-01-29T00:40:58.199Z,30.53
2018-01-29T00:43:32.861Z,31.17
2018-01-29T00:46:08.105Z,34.10
2018-01-29T00:48:43.404Z,29.77
2018-01-29T00:51:18.788Z,26.73
2018-01-29T00:53:53.414Z,36.33
2018-01-29T00:56:28.897Z,33.37
2018-01-29T00:59:03.820Z,25.05
2018-01-29T01:01:38.353Z,29.10
2018-01-29T01:04:13.879Z,27.80
2018-01-29T01:06:48.892Z,32.95
2018-01-29T01:09:24.941Z,43.53
2018-01-29T01:11:59.965Z,35.63
2018-01-29T01:14:34.422Z,35.00
2018-01-29T01:17:08.845Z,43.37
2018-01-29T01:19:44.140Z,36.07
2018-01-29T01:22:19.403Z,39.90
2018-01-29T01:24:54.472Z,34.63
2018-01-29T01:27:29.889Z,37.10
2018-01-29T01:30:05.116Z,48.83
2018-01-29T01:32:40.233Z,44.07
2018-01-29T01:35:14.889Z,29.30
2018-01-29T01:37:49.691Z,43.07
2018-01-29T01:40:25.460Z,36.78
2018-01-29T01:43:01.052Z,34.70
2018-01-29T01:45:36.049Z,34.40
2018-01-29T01:48:11.071Z,40.80
2018-01-29T01:50:46.059Z,32.17
2018-01-29T01:53:21.481Z,36.30
2018-01-29T01:55:56.481Z,27.37
2018-01-29T01:58:31.569Z,28.33
2018-01-29T02:01:07.190Z,33.33
2018-01-29T02:03:42.329Z,34.43
2018-01-29T02:06:17.489Z,31.50
2018-01-29T02:08:52.692Z,33.87
2018-01-29T02:11:27.684Z,28.40
2018-01-29T02:14:03.350Z,20.47
2018-01-29T02:16:38.500Z,28.97
2018-01-29T02:19:13.476Z,27.17
2018-01-29T02:21:48.388Z,28.83
2018-01-29T02:24:23.636Z,23.27
2018-01-29T02:26:58.719Z,24.40
2018-01-29T02:29:34.189Z,27.27
2018-01-29T02:32:09.509Z,27.63
2018-01-29T02:34:44.225Z,25.53
2018-01-29T02:37:18.428Z,30.00
2018-01-29T02:39:53.711Z,25.53
2018-01-29T02:42:28.587Z,19.67
2018-01-29T02:45:03.333Z,25.07
2018-01-29T02:47:38.456Z,26.77
2018-01-29T02:50:13.595Z,25.43
2018-01-29T02:52:48.520Z,24.20
2018-01-29T02:55:23.074Z,24.30
2018-01-29T02:57:57.278Z,26.30
2018-01-29T03:00:32.682Z,25.00
2018-01-29T03:03:07.593Z,24.80
2018-01-29T03:05:42.518Z,28.83
2018-01-29T03:08:17.214Z,25.95
2018-01-29T03:10:52.263Z,25.77
2018-01-29T03:13:27.224Z,26.87
2018-01-29T03:16:01.637Z,18.50
2018-01-29T03:18:36.601Z,25.50
2018-01-29T03:21:11.250Z,25.23
2018-01-29T03:23:45.672Z,24.47
2018-01-29T03:26:20.706Z,26.10
2018-01-29T03:28:55.808Z,18.23
2018-01-29T03:31:30.701Z,22.87
2018-01-29T03:34:06.327Z,22.93
2018-01-29T03:36:41.358Z,17.97
2018-01-29T03:39:16.456Z,17.27
2018-01-29T03:41:51.365Z,22.70
2018-01-29T03:44:26.733Z,13.47
2018-01-29T03:47:02.309Z,20.48
2018-01-29T03:49:37.711Z,27.23
2018-01-29T03:52:12.696Z,18.30
2018-01-29T03:54:47.927Z,21.63
2018-01-29T03:57:22.947Z,20.93
2018-01-29T03:59:57.924Z,21.20
2018-01-29T04:02:33.664Z,20.33
2018-01-29T04:05:08.575Z,17.77
2018-01-29T04:07:43.584Z,22.17
2018-01-29T04:10:18.512Z,21.90
2018-01-29T04:12:53.504Z,22.70
2018-01-29T04:15:28.491Z,21.97
2018-01-29T04:18:03.604Z,22.57
2018-01-29T04:20:38.734Z,22.70
2018-01-29T04:23:13.794Z,23.20
2018-01-29T04:25:48.600Z,25.70
2018-01-29T04:28:23.793Z,23.90
2018-01-29T04:30:58.719Z,17.70
2018-01-29T04:33:33.664Z,25.23
2018-01-29T04:36:08.487Z,25.00
2018-01-29T04:38:43.762Z,22.23
2018-01-29T04:41:18.468Z,27.40
2018-01-29T04:43:53.566Z,20.50
2018-01-29T04:46:28.308Z,25.50
2018-01-29T04:49:03.552Z,25.10
2018-01-29T04:51:38.634Z,26.73
2018-01-29T04:54:13.524Z,15.27
2018-01-29T04:56:48.648Z,19.00
2018-01-29T04:59:23.989Z,22.50
2018-01-29T05:01:58.890Z,23.37
2018-01-29T05:04:33.688Z,17.63
2018-01-29T05:07:08.936Z,16.50
2018-01-29T05:09:43.731Z,19.60
2018-01-29T05:12:18.389Z,19.33
2018-01-29T05:14:53.632Z,17.10
2018-01-29T05:17:28.624Z,19.13
2018-01-29T05:20:03.776Z,19.40
2018-01-29T05:22:38.859Z,17.00
2018-01-29T05:25:13.791Z,20.27
2018-01-29T05:27:48.877Z,27.87
2018-01-29T05:30:24.083Z,20.87
2018-01-29T05:32:58.894Z,22.70
2018-01-29T05:35:51.535Z,25.27
2018-01-29T05:38:26.682Z,24.73
2018-01-29T05:41:01.676Z,20.20
2018-01-29T05:43:37.000Z,17.60
2018-01-29T05:46:11.700Z,18.70
2018-01-29T05:48:46.488Z,24.90
2018-01-29T05:51:21.652Z,22.20
2018-01-29T05:53:55.466Z,20.13
2018-01-29T05:56:29.836Z,23.90
2018-01-29T05:59:04.712Z,22.13
2018-01-29T06:01:39.716Z,23.03
2018-01-29T06:04:14.591Z,16.63
2018-01-29T06:06:49.690Z,17.43
2018-01-29T06:09:25.782Z,13.98
2018-01-29T06:12:00.776Z,21.60
2018-01-29T06:14:35.810Z,15.57
2018-01-29T06:17:10.788Z,19.20
2018-01-29T06:19:45.379Z,19.07
2018-01-29T06:22:20.257Z,15.50
2018-01-29T06:24:55.201Z,19.43
2018-01-29T06:27:30.305Z,16.73
2018-01-29T06:30:05.387Z,17.43
2018-01-29T06:32:40.796Z,18.87
2018-01-29T06:35:15.784Z,13.63
2018-01-29T06:37:50.789Z,15.30
2018-01-29T06:40:27.290Z,12.27
2018-01-29T06:43:02.798Z,16.73
2018-01-29T06:45:38.017Z,11.02
2018-01-29T06:48:12.857Z,13.13
2018-01-29T06:50:47.253Z,7.70
2018-01-29T06:53:21.644Z,7.70
2018-01-29T06:55:56.444Z,11.73
2018-01-29T06:58:31.488Z,6.30
2018-01-29T07:01:06.503Z,8.70
2018-01-29T07:03:41.425Z,5.40
2018-01-29T07:06:16.838Z,6.32
2018-01-29T07:08:51.924Z,5.33
2018-01-29T07:11:26.919Z,8.73
2018-01-29T07:14:01.913Z,4.73
2018-01-29T07:16:36.934Z,6.43
2018-01-29T07:19:12.030Z,3.57
2018-01-29T07:21:46.998Z,4.80
2018-01-29T07:24:22.008Z,2.87
2018-01-29T07:26:57.079Z,4.30
2018-01-29T07:29:32.365Z,3.35
2018-01-29T07:32:07.672Z,6.10
2018-01-29T07:34:43.039Z,6.50
2018-01-29T07:37:18.204Z,3.40
2018-01-29T07:39:53.102Z,4.73
2018-01-29T07:42:27.956Z,2.27
2018-01-29T07:45:03.246Z,3.83
2018-01-29T07:47:38.247Z,6.53
2018-01-29T07:50:12.967Z,9.50
2018-01-29T07:52:48.105Z,2.47
2018-01-29T07:55:23.209Z,5.50
2018-01-29T07:57:58.525Z,3.13
2018-01-29T08:00:33.753Z,2.53
2018-01-29T08:03:09.090Z,2.87
2018-01-29T08:05:44.065Z,2.60
2018-01-29T08:08:19.221Z,2.80
2018-01-29T08:10:54.093Z,3.22
2018-01-29T08:13:29.202Z,3.63
2018-01-29T08:16:04.093Z,1.40
2018-01-29T08:18:39.189Z,8.55
2018-01-29T08:21:14.176Z,3.43
2018-01-29T08:23:49.098Z,6.90
2018-01-29T08:26:24.417Z,4.83
2018-01-29T08:28:59.206Z,3.37
2018-01-29T08:31:34.490Z,2.80
2018-01-29T08:34:10.136Z,6.50
2018-01-29T08:36:45.074Z,7.13
2018-01-29T08:39:20.112Z,8.20
2018-01-29T08:41:55.125Z,4.93
2018-01-29T08:44:30.177Z,5.10
2018-01-29T08:47:05.197Z,1.67
2018-01-29T08:49:40.396Z,4.32
2018-01-29T08:52:15.299Z,5.20
2018-01-29T08:54:50.288Z,4.63
2018-01-29T08:57:26.281Z,2.95
2018-01-29T09:00:01.092Z,10.73
2018-01-29T09:02:36.401Z,3.53
2018-01-29T09:05:11.582Z,3.60
2018-01-29T09:07:46.591Z,3.27
2018-01-29T09:10:21.771Z,5.37
2018-01-29T09:12:56.666Z,3.93
2018-01-29T09:15:31.640Z,8.20
2018-01-29T09:18:06.517Z,9.03
2018-01-29T09:20:42.095Z,6.53
2018-01-29T09:23:17.165Z,1.65
2018-01-29T09:25:52.217Z,7.93
2018-01-29T09:28:27.290Z,7.72
2018-01-29T09:31:02.569Z,6.33
2018-01-29T09:33:37.469Z,7.22
2018-01-29T09:36:12.284Z,8.47
2018-01-29T09:38:47.318Z,4.00
2018-01-29T09:41:22.495Z,7.03
2018-01-29T09:43:57.672Z,4.97
2018-01-29T09:46:32.532Z,2.03
2018-01-29T09:49:07.209Z,5.20
2018-01-29T09:51:42.481Z,13.23
2018-01-29T09:54:17.394Z,7.03
2018-01-29T09:56:52.390Z,7.20
2018-01-29T09:59:27.597Z,5.23
2018-01-29T10:02:02.483Z,7.60
2018-01-29T10:04:37.864Z,3.93
2018-01-29T10:07:13.257Z,5.18
2018-01-29T10:09:48.405Z,6.80
2018-01-29T10:12:23.499Z,5.63
2018-01-29T10:14:58.422Z,5.43
2018-01-29T10:17:33.176Z,7.30
2018-01-29T10:20:08.351Z,7.30
2018-01-29T10:22:43.615Z,2.75
2018-01-29T10:25:18.645Z,4.87
2018-01-29T10:27:53.667Z,1.93
2018-01-29T10:30:29.208Z,4.85
2018-01-29T10:33:04.469Z,5.37
2018-01-29T10:35:39.687Z,3.60
2018-01-29T10:38:14.474Z,11.27
2018-01-29T10:40:49.096Z,3.50
2018-01-29T10:43:24.671Z,3.17
2018-01-29T10:45:59.255Z,1.97
2018-01-29T10:48:34.381Z,2.10
2018-01-29T10:51:08.947Z,5.10
2018-01-29T10:53:43.765Z,3.73
2018-01-29T10:56:18.436Z,5.60
2018-01-29T10:58:53.515Z,3.73
2018-01-29T11:01:28.551Z,8.20
2018-01-29T11:04:03.157Z,4.47
2018-01-29T11:06:38.526Z,2.17
2018-01-29T11:09:13.221Z,4.50
2018-01-29T11:11:48.118Z,6.73
2018-01-29T11:14:23.649Z,1.43
2018-01-29T11:16:58.429Z,1.58
2018-01-29T11:19:33.612Z,3.25
2018-01-29T11:22:08.616Z,5.23
2018-01-29T11:24:42.982Z,4.25
2018-01-29T11:27:18.182Z,3.80
2018-01-29T11:29:53.109Z,4.23
2018-01-29T11:32:28.469Z,1.45
2018-01-29T11:35:03.622Z,2.10
2018-01-29T11:37:38.811Z,2.30
2018-01-29T11:40:13.699Z,1.80
2018-01-29T11:42:48.792Z,1.70
2018-01-29T11:45:23.931Z,2.13
2018-01-29T11:47:59.012Z,2.03
2018-01-29T11:50:33.875Z,1.53
2018-01-29T11:53:09.090Z,1.50
2018-01-29T11:55:43.895Z,1.27
2018-01-29T11:58:18.969Z,3.43
2018-01-29T12:00:54.048Z,2.90
2018-01-29T12:03:29.157Z,2.00
2018-01-29T12:06:04.250Z,5.23
2018-01-29T12:08:39.719Z,2.28
2018-01-29T12:11:14.718Z,3.70
2018-01-29T12:13:49.720Z,1.83
2018-01-29T12:16:25.044Z,1.20
2018-01-29T12:18:59.831Z,2.30
2018-01-29T12:21:34.888Z,1.20
2018-01-29T12:24:09.859Z,1.35
2018-01-29T12:26:44.824Z,1.73
2018-01-29T12:29:19.668Z,8.60
2018-01-29T12:31:54.460Z,2.73
2018-01-29T12:34:30.075Z,1.50
2018-01-29T12:37:04.741Z,2.77
2018-01-29T12:39:40.022Z,2.92
2018-01-29T12:42:14.888Z,3.00
2018-01-29T12:44:49.796Z,4.53
2018-01-29T12:47:24.824Z,2.57
2018-01-29T12:49:59.818Z,1.33
2018-01-29T12:52:34.209Z,4.60
2018-01-29T12:55:08.449Z,5.20
2018-01-29T12:57:43.459Z,4.13
2018-01-29T13:00:18.853Z,3.50
2018-01-29T13:02:53.915Z,2.37
2018-01-29T13:05:29.765Z,2.97
2018-01-29T13:08:04.850Z,4.37
2018-01-29T13:10:39.939Z,1.85
2018-01-29T13:13:15.172Z,4.70
2018-01-29T13:15:50.232Z,1.93
2018-01-29T13:18:25.313Z,3.20
2018-01-29T13:21:00.207Z,1.97
2018-01-29T13:23:35.262Z,2.80
2018-01-29T13:26:10.258Z,3.63
2018-01-29T13:28:45.122Z,2.07
2018-01-29T13:31:20.210Z,4.67
2018-01-29T13:33:55.080Z,1.53
2018-01-29T13:36:30.334Z,5.13
2018-01-29T13:39:04.260Z,1.00
2018-01-29T13:41:39.008Z,1.37
2018-01-29T13:44:13.921Z,1.60
2018-01-29T13:46:48.897Z,2.77
2018-01-29T13:49:24.183Z,2.50
2018-01-29T13:51:59.265Z,1.80
2018-01-29T13:54:34.257Z,3.80
2018-01-29T13:57:09.364Z,2.07
2018-01-29T13:59:45.178Z,1.02
2018-01-29T14:02:20.028Z,2.10
2018-01-29T14:04:55.027Z,2.00
2018-01-29T14:07:29.729Z,3.83
2018-01-29T14:10:05.193Z,2.33
2018-01-29T14:12:40.272Z,2.93
2018-01-29T14:15:15.061Z,2.03
2018-01-29T14:17:50.037Z,2.90
2018-01-29T14:20:25.056Z,1.97
2018-01-29T14:23:00.334Z,2.23
2018-01-29T14:25:35.905Z,3.05
2018-01-29T14:28:11.021Z,4.03
2018-01-29T14:30:46.094Z,2.20
2018-01-29T14:33:21.092Z,1.87
2018-01-29T14:35:56.085Z,1.53
2018-01-29T14:38:31.359Z,2.77
2018-01-29T14:41:06.180Z,2.73
2018-01-29T14:43:41.740Z,2.20
2018-01-29T14:46:16.516Z,1.77
2018-01-29T14:48:51.598Z,2.50
2018-01-29T14:51:27.564Z,2.90
2018-01-29T14:54:01.939Z,3.00
2018-01-29T14:56:36.654Z,2.20
2018-01-29T14:59:11.649Z,3.23
2018-01-29T15:01:46.631Z,2.57
2018-01-29T15:04:21.803Z,2.50
2018-01-29T15:06:56.813Z,2.80
2018-01-29T15:09:31.711Z,3.20
2018-01-29T15:12:07.194Z,4.63
2018-01-29T15:14:42.589Z,6.77
2018-01-29T15:17:17.678Z,5.20
2018-01-29T15:19:52.660Z,2.47
2018-01-29T15:22:27.756Z,4.83
2018-01-29T15:25:03.363Z,2.62
2018-01-29T15:27:38.423Z,3.58
2018-01-29T15:30:13.621Z,4.07
2018-01-29T15:32:48.256Z,4.30
2018-01-29T15:35:23.393Z,4.63
2018-01-29T15:37:58.265Z,2.90
2018-01-29T15:40:33.543Z,4.40
2018-01-29T15:43:08.113Z,5.90
2018-01-29T15:45:43.283Z,4.00
2018-01-29T15:48:19.754Z,7.40
2018-01-29T15:50:55.167Z,3.95
2018-01-29T15:53:30.300Z,5.10
2018-01-29T15:56:05.294Z,4.67
2018-01-29T15:58:40.508Z,6.30
2018-01-29T16:01:15.433Z,4.13
2018-01-29T16:03:50.437Z,3.80
2018-01-29T16:06:25.505Z,5.70
2018-01-29T16:09:00.316Z,6.80
2018-01-29T16:11:35.553Z,9.43
2018-01-29T16:14:10.423Z,3.10
2018-01-29T16:16:45.580Z,3.87
2018-01-29T16:19:20.410Z,8.10
2018-01-29T16:21:55.398Z,6.50
2018-01-29T16:24:30.608Z,4.10
2018-01-29T16:27:05.353Z,6.13
2018-01-29T16:29:40.668Z,4.85
2018-01-29T16:32:15.443Z,5.20
2018-01-29T16:34:50.415Z,3.10
2018-01-29T16:37:25.210Z,5.60
2018-01-29T16:40:00.196Z,4.75
2018-01-29T16:42:34.340Z,7.90
2018-01-29T16:45:09.198Z,4.27
2018-01-29T16:47:44.354Z,4.90
2018-01-29T16:50:19.180Z,6.00
2018-01-29T16:52:54.159Z,5.20
2018-01-29T16:55:29.486Z,4.03
2018-01-29T16:58:04.451Z,4.50
2018-01-29T17:00:39.331Z,4.78
2018-01-29T17:03:14.481Z,3.73
2018-01-29T17:05:49.361Z,6.12
2018-01-29T17:08:24.523Z,3.50
2018-01-29T17:10:58.957Z,3.67
2018-01-29T17:13:33.936Z,4.93
2018-01-29T17:16:08.913Z,2.90
2018-01-29T17:18:43.415Z,3.97
2018-01-29T17:21:18.272Z,4.50
2018-01-29T17:23:53.467Z,4.93
2018-01-29T17:26:27.679Z,4.30
2018-01-29T17:29:02.838Z,4.50
2018-01-29T17:31:38.024Z,6.63
2018-01-29T17:34:13.487Z,5.90
2018-01-29T17:36:48.347Z,6.93
2018-01-29T17:39:23.504Z,3.80
2018-01-29T17:41:58.035Z,3.80
2018-01-29T17:44:33.188Z,4.90
2018-01-29T17:47:08.612Z,2.42
2018-01-29T17:49:43.795Z,4.40
2018-01-29T17:52:18.676Z,5.63
2018-01-29T17:54:53.910Z,6.03
2018-01-29T17:57:29.085Z,6.30
2018-01-29T18:00:03.645Z,6.47
2018-01-29T18:02:39.011Z,7.43
2018-01-29T18:05:14.272Z,7.00
2018-01-29T18:07:49.464Z,6.70
2018-01-29T18:10:24.707Z,8.40
2018-01-29T18:12:59.683Z,7.37
2018-01-29T18:15:34.567Z,5.87
2018-01-29T18:18:09.512Z,3.22
2018-01-29T18:20:44.709Z,3.20
2018-01-29T18:23:19.704Z,1.40
2018-01-29T18:25:54.636Z,1.57
2018-01-29T18:28:29.860Z,1.77
2018-01-29T18:31:04.849Z,1.77
2018-01-29T18:33:39.823Z,1.55
2018-01-29T18:36:14.609Z,1.07
2018-01-29T18:38:49.576Z,1.00
2018-01-29T18:41:24.085Z,1.17
2018-01-29T18:43:59.471Z,3.30
2018-01-29T18:46:34.164Z,1.37
2018-01-29T18:49:09.129Z,1.90
2018-01-29T18:51:44.201Z,1.40
2018-01-29T18:54:19.013Z,0.93
2018-01-29T18:56:53.979Z,1.87
2018-01-29T18:59:28.790Z,1.10
2018-01-29T19:02:03.697Z,1.50
2018-01-29T19:04:40.236Z,1.70
2018-01-29T19:07:15.045Z,1.20
2018-01-29T19:09:50.332Z,1.00
2018-01-29T19:12:25.787Z,2.53
2018-01-29T19:15:00.970Z,1.33
2018-01-29T19:17:36.126Z,1.37
2018-01-29T19:20:11.221Z,0.80
2018-01-29T19:22:46.746Z,0.50
2018-01-29T19:25:21.933Z,1.37
2018-01-29T19:27:56.933Z,1.40
2018-01-29T19:30:32.162Z,0.73
2018-01-29T19:33:07.399Z,0.70
2018-01-29T19:35:42.684Z,1.02
2018-01-29T19:38:17.776Z,0.93
2018-01-29T19:40:52.801Z,0.57
2018-01-29T19:43:28.213Z,0.90
2018-01-29T19:46:02.891Z,0.83
2018-01-29T19:48:38.052Z,1.00
2018-01-29T19:51:12.942Z,0.70
2018-01-29T19:53:48.304Z,0.83
2018-01-29T19:56:23.869Z,1.02
2018-01-29T19:58:58.696Z,0.65
2018-01-29T20:01:34.128Z,1.02
2018-01-29T20:04:08.870Z,2.50
2018-01-29T20:06:43.884Z,2.35
2018-01-29T20:09:19.179Z,1.93
2018-01-29T20:11:54.168Z,2.57
2018-01-29T20:14:28.938Z,1.00
2018-01-29T20:17:04.095Z,2.87
2018-01-29T20:19:38.956Z,1.97
2018-01-29T20:22:14.026Z,2.60
2018-01-29T20:24:48.975Z,1.83
2018-01-29T20:27:24.055Z,0.67
2018-01-29T20:29:59.142Z,1.83
2018-01-29T20:32:34.331Z,2.37
2018-01-29T20:35:09.386Z,3.67
2018-01-29T20:37:44.257Z,8.43
2018-01-29T20:40:18.942Z,1.17
2018-01-29T20:42:53.969Z,1.20
2018-01-29T20:45:28.713Z,2.93
2018-01-29T20:48:03.205Z,4.00
2018-01-29T20:50:38.214Z,1.67
2018-01-29T20:53:13.053Z,3.83
2018-01-29T20:55:48.352Z,3.00
2018-01-29T20:58:23.403Z,6.97
2018-01-29T21:00:58.284Z,3.40
2018-01-29T21:03:33.248Z,3.17
2018-01-29T21:06:08.375Z,1.83
2018-01-29T21:08:44.001Z,8.60
2018-01-29T21:11:18.715Z,1.10
2018-01-29T21:13:54.103Z,2.47
2018-01-29T21:16:29.164Z,1.33
2018-01-29T21:19:04.017Z,5.97
2018-01-29T21:21:38.977Z,6.65
2018-01-29T21:24:14.067Z,5.70
2018-01-29T21:26:49.081Z,11.07
2018-01-29T21:29:23.613Z,3.87
2018-01-29T21:31:58.632Z,3.93
2018-01-29T21:34:34.033Z,2.15
2018-01-29T21:37:09.153Z,3.13
2018-01-29T21:39:44.086Z,1.07
2018-01-29T21:42:19.163Z,4.10
2018-01-29T21:44:53.594Z,5.10
2018-01-29T21:47:28.561Z,4.93
2018-01-29T21:50:03.757Z,5.40
2018-01-29T21:52:39.228Z,5.00
2018-01-29T21:55:14.376Z,3.07
2018-01-29T21:57:49.259Z,3.40
2018-01-29T22:00:24.577Z,8.13
2018-01-29T22:02:59.580Z,8.87
2018-01-29T22:05:34.426Z,2.62
2018-01-29T22:08:09.271Z,3.17
2018-01-29T22:10:44.482Z,1.40
2018-01-29T22:13:19.328Z,4.53
2018-01-29T22:15:53.892Z,4.33
2018-01-29T22:18:29.003Z,8.87
2018-01-29T22:21:04.208Z,0.90
2018-01-29T22:23:39.865Z,6.43
2018-01-29T22:26:14.567Z,10.83
2018-01-29T22:28:50.147Z,2.03
2018-01-29T22:31:25.120Z,5.80
2018-01-29T22:34:00.379Z,13.10
2018-01-29T22:36:35.696Z,2.10
2018-01-29T22:39:11.173Z,8.88
2018-01-29T22:41:46.321Z,2.85
2018-01-29T22:44:21.391Z,5.63
2018-01-29T22:46:56.493Z,6.00
2018-01-29T22:49:31.548Z,2.43
2018-01-29T22:52:06.384Z,10.33
2018-01-29T22:54:41.716Z,7.50
2018-01-29T22:57:16.521Z,6.00
2018-01-29T22:59:51.722Z,8.53
2018-01-29T23:02:26.715Z,4.90
2018-01-29T23:05:01.818Z,5.20
2018-01-29T23:07:36.691Z,3.23
2018-01-29T23:10:11.902Z,6.07
2018-01-29T23:12:47.352Z,0.80
2018-01-29T23:15:22.420Z,7.80
2018-01-29T23:17:57.396Z,4.90
2018-01-29T23:20:32.394Z,7.10
2018-01-29T23:23:07.552Z,6.23
2018-01-29T23:25:42.693Z,5.50
2018-01-29T23:28:17.423Z,3.87
2018-01-29T23:30:52.356Z,3.80
2018-01-29T23:33:28.763Z,3.47
2018-01-29T23:36:03.457Z,5.57
2018-01-29T23:38:38.644Z,8.13
2018-01-29T23:41:13.703Z,7.37
2018-01-29T23:43:48.600Z,5.27
2018-01-29T23:46:23.713Z,10.40
2018-01-29T23:48:58.852Z,4.60
2018-01-29T23:51:33.623Z,11.33
2018-01-29T23:54:08.232Z,5.87
2018-01-29T23:56:43.815Z,5.47
2018-01-29T23:59:18.717Z,8.13
